sensor_id;sensor_type;location;lat;lon;timestamp;P1;durP1;ratioP1;P2;durP2;ratioP2
21022;SDS011;10669;51.076;3.714;2022-12-07T00:00:52;13.97;;;8.93;;
21022;SDS011;10669;51.076;3.714;2022-12-07T00:03:18;13.60;;;8.20;;
21022;SDS011;10669;51.076;3.714;2022-12-07T00:05:44;19.70;;;9.13;;
21022;SDS011;10669;51.076;3.714;2022-12-07T00:08:10;14.43;;;8.83;;
21022;SDS011;10669;51.076;3.714;2022-12-07T00:10:35;21.33;;;9.37;;
21022;SDS011;10669;51.076;3.714;2022-12-07T00:13:01;15.47;;;8.73;;
21022;SDS011;10669;51.076;3.714;2022-12-07T00:15:26;15.17;;;9.33;;
21022;SDS011;10669;51.076;3.714;2022-12-07T00:17:52;12.10;;;8.23;;
21022;SDS011;10669;51.076;3.714;2022-12-07T00:20:17;12.80;;;7.60;;
21022;SDS011;10669;51.076;3.714;2022-12-07T00:22:43;18.60;;;8.70;;
21022;SDS011;10669;51.076;3.714;2022-12-07T00:25:09;16.87;;;7.63;;
21022;SDS011;10669;51.076;3.714;2022-12-07T00:27:34;12.50;;;7.13;;
21022;SDS011;10669;51.076;3.714;2022-12-07T00:30:00;13.10;;;7.47;;
21022;SDS011;10669;51.076;3.714;2022-12-07T00:32:27;12.60;;;6.80;;
21022;SDS011;10669;51.076;3.714;2022-12-07T00:34:52;14.77;;;6.67;;
21022;SDS011;10669;51.076;3.714;2022-12-07T00:37:18;8.63;;;5.63;;
21022;SDS011;10669;51.076;3.714;2022-12-07T00:39:45;14.17;;;6.47;;
21022;SDS011;10669;51.076;3.714;2022-12-07T00:42:10;11.73;;;5.83;;
21022;SDS011;10669;51.076;3.714;2022-12-07T00:44:36;14.03;;;5.10;;
21022;SDS011;10669;51.076;3.714;2022-12-07T00:47:02;7.17;;;5.30;;
21022;SDS011;10669;51.076;3.714;2022-12-07T00:49:28;7.50;;;4.67;;
21022;SDS011;10669;51.076;3.714;2022-12-07T00:51:54;9.50;;;4.50;;
21022;SDS011;10669;51.076;3.714;2022-12-07T00:54:20;8.23;;;4.93;;
21022;SDS011;10669;51.076;3.714;2022-12-07T00:56:46;8.30;;;5.10;;
21022;SDS011;10669;51.076;3.714;2022-12-07T00:59:12;7.97;;;4.90;;
21022;SDS011;10669;51.076;3.714;2022-12-07T01:01:42;12.70;;;4.57;;
21022;SDS011;10669;51.076;3.714;2022-12-07T01:04:08;7.47;;;5.10;;
21022;SDS011;10669;51.076;3.714;2022-12-07T01:06:34;12.77;;;4.90;;
21022;SDS011;10669;51.076;3.714;2022-12-07T01:09:00;10.70;;;5.33;;
21022;SDS011;10669;51.076;3.714;2022-12-07T01:11:27;11.70;;;5.73;;
21022;SDS011;10669;51.076;3.714;2022-12-07T01:13:54;13.73;;;5.77;;
21022;SDS011;10669;51.076;3.714;2022-12-07T01:16:22;17.50;;;6.50;;
21022;SDS011;10669;51.076;3.714;2022-12-07T01:18:50;14.80;;;6.53;;
21022;SDS011;10669;51.076;3.714;2022-12-07T01:21:18;9.80;;;6.07;;
21022;SDS011;10669;51.076;3.714;2022-12-07T01:23:47;15.63;;;6.33;;
21022;SDS011;10669;51.076;3.714;2022-12-07T01:26:14;8.50;;;6.03;;
21022;SDS011;10669;51.076;3.714;2022-12-07T01:28:43;10.10;;;6.00;;
21022;SDS011;10669;51.076;3.714;2022-12-07T01:31:10;14.03;;;6.53;;
21022;SDS011;10669;51.076;3.714;2022-12-07T01:33:37;9.77;;;5.83;;
21022;SDS011;10669;51.076;3.714;2022-12-07T01:36:08;10.73;;;6.83;;
21022;SDS011;10669;51.076;3.714;2022-12-07T01:38:34;9.07;;;6.80;;
21022;SDS011;10669;51.076;3.714;2022-12-07T01:41:01;12.97;;;7.53;;
21022;SDS011;10669;51.076;3.714;2022-12-07T01:43:28;14.80;;;7.60;;
21022;SDS011;10669;51.076;3.714;2022-12-07T01:45:54;18.97;;;8.63;;
21022;SDS011;10669;51.076;3.714;2022-12-07T01:48:22;11.57;;;9.50;;
21022;SDS011;10669;51.076;3.714;2022-12-07T01:50:55;17.80;;;8.40;;
21022;SDS011;10669;51.076;3.714;2022-12-07T01:53:25;10.77;;;8.07;;
21022;SDS011;10669;51.076;3.714;2022-12-07T01:55:53;19.40;;;9.40;;
21022;SDS011;10669;51.076;3.714;2022-12-07T01:58:20;11.87;;;8.73;;
21022;SDS011;10669;51.076;3.714;2022-12-07T02:00:48;14.87;;;9.53;;
21022;SDS011;10669;51.076;3.714;2022-12-07T02:03:34;11.77;;;8.57;;
21022;SDS011;10669;51.076;3.714;2022-12-07T02:06:06;12.83;;;8.47;;
21022;SDS011;10669;51.076;3.714;2022-12-07T02:08:32;13.80;;;8.90;;
21022;SDS011;10669;51.076;3.714;2022-12-07T02:11:00;12.97;;;9.10;;
21022;SDS011;10669;51.076;3.714;2022-12-07T02:13:28;12.50;;;8.73;;
21022;SDS011;10669;51.076;3.714;2022-12-07T02:16:05;15.90;;;8.57;;
21022;SDS011;10669;51.076;3.714;2022-12-07T02:29:45;15.13;;;8.13;;
21022;SDS011;10669;51.076;3.714;2022-12-07T02:35:28;18.07;;;8.73;;
21022;SDS011;10669;51.076;3.714;2022-12-07T02:43:38;12.93;;;7.60;;
21022;SDS011;10669;51.076;3.714;2022-12-07T02:46:16;15.30;;;7.73;;
21022;SDS011;10669;51.076;3.714;2022-12-07T02:48:45;14.40;;;8.03;;
21022;SDS011;10669;51.076;3.714;2022-12-07T02:51:12;15.83;;;9.13;;
21022;SDS011;10669;51.076;3.714;2022-12-07T02:53:41;19.87;;;8.47;;
21022;SDS011;10669;51.076;3.714;2022-12-07T02:58:41;16.43;;;7.83;;
21022;SDS011;10669;51.076;3.714;2022-12-07T03:04:24;9.87;;;6.73;;
21022;SDS011;10669;51.076;3.714;2022-12-07T03:07:00;16.67;;;7.00;;
21022;SDS011;10669;51.076;3.714;2022-12-07T03:09:36;17.00;;;7.50;;
21022;SDS011;10669;51.076;3.714;2022-12-07T03:12:17;10.67;;;6.40;;
21022;SDS011;10669;51.076;3.714;2022-12-07T03:14:55;13.93;;;6.93;;
21022;SDS011;10669;51.076;3.714;2022-12-07T03:17:30;17.80;;;7.67;;
21022;SDS011;10669;51.076;3.714;2022-12-07T03:19:59;11.80;;;7.37;;
21022;SDS011;10669;51.076;3.714;2022-12-07T03:22:28;13.00;;;6.87;;
21022;SDS011;10669;51.076;3.714;2022-12-07T03:24:58;15.80;;;6.97;;
21022;SDS011;10669;51.076;3.714;2022-12-07T03:27:26;12.40;;;6.90;;
21022;SDS011;10669;51.076;3.714;2022-12-07T03:35:03;12.60;;;5.43;;
21022;SDS011;10669;51.076;3.714;2022-12-07T03:40:19;10.23;;;5.30;;
21022;SDS011;10669;51.076;3.714;2022-12-07T03:42:48;10.33;;;5.70;;
21022;SDS011;10669;51.076;3.714;2022-12-07T03:45:15;8.00;;;5.23;;
21022;SDS011;10669;51.076;3.714;2022-12-07T03:50:29;10.57;;;5.30;;
21022;SDS011;10669;51.076;3.714;2022-12-07T03:53:03;13.90;;;6.33;;
21022;SDS011;10669;51.076;3.714;2022-12-07T03:55:35;9.17;;;5.37;;
21022;SDS011;10669;51.076;3.714;2022-12-07T03:58:08;7.03;;;5.13;;
21022;SDS011;10669;51.076;3.714;2022-12-07T04:00:36;14.10;;;5.50;;
21022;SDS011;10669;51.076;3.714;2022-12-07T04:03:03;10.03;;;5.23;;
21022;SDS011;10669;51.076;3.714;2022-12-07T04:05:28;13.17;;;5.47;;
21022;SDS011;10669;51.076;3.714;2022-12-07T04:07:54;8.33;;;4.90;;
21022;SDS011;10669;51.076;3.714;2022-12-07T04:10:20;9.97;;;5.23;;
21022;SDS011;10669;51.076;3.714;2022-12-07T04:12:46;6.17;;;4.80;;
21022;SDS011;10669;51.076;3.714;2022-12-07T04:15:12;11.00;;;5.67;;
21022;SDS011;10669;51.076;3.714;2022-12-07T04:17:37;12.37;;;5.47;;
21022;SDS011;10669;51.076;3.714;2022-12-07T04:20:03;13.27;;;4.90;;
21022;SDS011;10669;51.076;3.714;2022-12-07T04:22:31;9.40;;;5.40;;
21022;SDS011;10669;51.076;3.714;2022-12-07T04:24:57;7.10;;;4.17;;
21022;SDS011;10669;51.076;3.714;2022-12-07T04:27:23;11.30;;;5.00;;
21022;SDS011;10669;51.076;3.714;2022-12-07T04:29:49;10.47;;;5.07;;
21022;SDS011;10669;51.076;3.714;2022-12-07T04:32:14;9.33;;;5.47;;
21022;SDS011;10669;51.076;3.714;2022-12-07T04:34:40;9.73;;;4.73;;
21022;SDS011;10669;51.076;3.714;2022-12-07T04:37:05;14.93;;;5.83;;
21022;SDS011;10669;51.076;3.714;2022-12-07T04:39:31;12.23;;;4.83;;
21022;SDS011;10669;51.076;3.714;2022-12-07T04:41:59;6.90;;;5.07;;
21022;SDS011;10669;51.076;3.714;2022-12-07T04:44:26;9.63;;;5.03;;
21022;SDS011;10669;51.076;3.714;2022-12-07T04:46:53;12.67;;;4.90;;
21022;SDS011;10669;51.076;3.714;2022-12-07T04:49:19;6.70;;;5.00;;
21022;SDS011;10669;51.076;3.714;2022-12-07T04:51:45;11.97;;;4.67;;
21022;SDS011;10669;51.076;3.714;2022-12-07T04:54:11;9.77;;;4.90;;
21022;SDS011;10669;51.076;3.714;2022-12-07T04:56:38;7.70;;;4.30;;
21022;SDS011;10669;51.076;3.714;2022-12-07T04:59:03;6.60;;;4.27;;
21022;SDS011;10669;51.076;3.714;2022-12-07T05:01:31;10.97;;;4.23;;
21022;SDS011;10669;51.076;3.714;2022-12-07T05:03:57;6.13;;;4.40;;
21022;SDS011;10669;51.076;3.714;2022-12-07T05:06:23;10.67;;;4.27;;
21022;SDS011;10669;51.076;3.714;2022-12-07T05:08:49;8.03;;;4.10;;
21022;SDS011;10669;51.076;3.714;2022-12-07T05:11:14;9.87;;;4.20;;
21022;SDS011;10669;51.076;3.714;2022-12-07T05:13:59;6.77;;;4.37;;
21022;SDS011;10669;51.076;3.714;2022-12-07T05:16:26;10.47;;;4.47;;
21022;SDS011;10669;51.076;3.714;2022-12-07T05:18:53;7.57;;;4.30;;
21022;SDS011;10669;51.076;3.714;2022-12-07T05:21:19;9.37;;;4.20;;
21022;SDS011;10669;51.076;3.714;2022-12-07T05:23:44;7.20;;;3.63;;
21022;SDS011;10669;51.076;3.714;2022-12-07T05:26:10;15.23;;;3.67;;
21022;SDS011;10669;51.076;3.714;2022-12-07T05:28:36;10.53;;;4.00;;
21022;SDS011;10669;51.076;3.714;2022-12-07T05:31:01;8.47;;;3.73;;
21022;SDS011;10669;51.076;3.714;2022-12-07T05:33:28;7.77;;;4.13;;
21022;SDS011;10669;51.076;3.714;2022-12-07T05:35:53;8.90;;;5.07;;
21022;SDS011;10669;51.076;3.714;2022-12-07T05:38:19;9.27;;;5.23;;
21022;SDS011;10669;51.076;3.714;2022-12-07T05:40:44;8.73;;;4.33;;
21022;SDS011;10669;51.076;3.714;2022-12-07T05:43:13;7.77;;;4.77;;
21022;SDS011;10669;51.076;3.714;2022-12-07T05:45:39;8.70;;;4.63;;
21022;SDS011;10669;51.076;3.714;2022-12-07T05:48:07;14.20;;;5.10;;
21022;SDS011;10669;51.076;3.714;2022-12-07T05:50:32;8.93;;;4.73;;
21022;SDS011;10669;51.076;3.714;2022-12-07T05:52:58;7.90;;;4.30;;
21022;SDS011;10669;51.076;3.714;2022-12-07T05:55:23;7.57;;;4.60;;
21022;SDS011;10669;51.076;3.714;2022-12-07T05:57:49;9.53;;;4.10;;
21022;SDS011;10669;51.076;3.714;2022-12-07T06:00:34;12.63;;;6.07;;
21022;SDS011;10669;51.076;3.714;2022-12-07T06:03:01;8.67;;;6.00;;
21022;SDS011;10669;51.076;3.714;2022-12-07T06:05:27;14.23;;;5.50;;
21022;SDS011;10669;51.076;3.714;2022-12-07T06:07:53;8.23;;;5.10;;
21022;SDS011;10669;51.076;3.714;2022-12-07T06:10:20;12.93;;;4.90;;
21022;SDS011;10669;51.076;3.714;2022-12-07T06:12:45;8.87;;;4.63;;
21022;SDS011;10669;51.076;3.714;2022-12-07T06:15:11;10.77;;;5.40;;
21022;SDS011;10669;51.076;3.714;2022-12-07T06:17:38;14.77;;;6.10;;
21022;SDS011;10669;51.076;3.714;2022-12-07T06:20:04;9.60;;;6.00;;
21022;SDS011;10669;51.076;3.714;2022-12-07T06:22:30;11.53;;;6.20;;
21022;SDS011;10669;51.076;3.714;2022-12-07T06:24:56;14.70;;;5.40;;
21022;SDS011;10669;51.076;3.714;2022-12-07T06:27:21;11.03;;;5.50;;
21022;SDS011;10669;51.076;3.714;2022-12-07T06:29:47;8.27;;;5.40;;
21022;SDS011;10669;51.076;3.714;2022-12-07T06:32:12;14.73;;;5.67;;
21022;SDS011;10669;51.076;3.714;2022-12-07T06:34:38;12.23;;;5.83;;
21022;SDS011;10669;51.076;3.714;2022-12-07T06:37:04;10.13;;;5.50;;
21022;SDS011;10669;51.076;3.714;2022-12-07T06:39:30;13.73;;;5.77;;
21022;SDS011;10669;51.076;3.714;2022-12-07T06:41:56;12.00;;;5.47;;
21022;SDS011;10669;51.076;3.714;2022-12-07T06:44:22;11.13;;;6.13;;
21022;SDS011;10669;51.076;3.714;2022-12-07T06:46:48;9.00;;;5.40;;
21022;SDS011;10669;51.076;3.714;2022-12-07T06:49:14;9.73;;;4.83;;
21022;SDS011;10669;51.076;3.714;2022-12-07T06:51:40;12.17;;;5.90;;
21022;SDS011;10669;51.076;3.714;2022-12-07T06:54:07;13.73;;;5.63;;
21022;SDS011;10669;51.076;3.714;2022-12-07T06:56:34;18.07;;;6.80;;
21022;SDS011;10669;51.076;3.714;2022-12-07T06:58:59;13.20;;;6.10;;
21022;SDS011;10669;51.076;3.714;2022-12-07T07:01:26;10.43;;;6.23;;
21022;SDS011;10669;51.076;3.714;2022-12-07T07:03:51;18.07;;;5.83;;
21022;SDS011;10669;51.076;3.714;2022-12-07T07:06:17;15.63;;;6.50;;
21022;SDS011;10669;51.076;3.714;2022-12-07T07:08:43;17.97;;;6.87;;
21022;SDS011;10669;51.076;3.714;2022-12-07T07:11:09;16.13;;;7.20;;
21022;SDS011;10669;51.076;3.714;2022-12-07T07:13:37;18.27;;;6.87;;
21022;SDS011;10669;51.076;3.714;2022-12-07T07:16:03;13.00;;;6.37;;
21022;SDS011;10669;51.076;3.714;2022-12-07T07:18:30;13.93;;;5.90;;
21022;SDS011;10669;51.076;3.714;2022-12-07T07:20:55;10.67;;;5.43;;
21022;SDS011;10669;51.076;3.714;2022-12-07T07:23:21;10.67;;;5.30;;
21022;SDS011;10669;51.076;3.714;2022-12-07T07:25:48;23.97;;;5.83;;
21022;SDS011;10669;51.076;3.714;2022-12-07T07:28:14;19.37;;;5.67;;
21022;SDS011;10669;51.076;3.714;2022-12-07T07:30:40;18.27;;;6.67;;
21022;SDS011;10669;51.076;3.714;2022-12-07T07:33:09;11.93;;;6.07;;
21022;SDS011;10669;51.076;3.714;2022-12-07T07:35:35;7.33;;;5.20;;
21022;SDS011;10669;51.076;3.714;2022-12-07T07:38:02;14.87;;;5.13;;
21022;SDS011;10669;51.076;3.714;2022-12-07T07:40:29;11.77;;;5.50;;
21022;SDS011;10669;51.076;3.714;2022-12-07T07:42:55;13.93;;;5.67;;
21022;SDS011;10669;51.076;3.714;2022-12-07T07:45:22;12.40;;;6.00;;
21022;SDS011;10669;51.076;3.714;2022-12-07T07:47:49;13.13;;;5.57;;
21022;SDS011;10669;51.076;3.714;2022-12-07T07:50:16;10.50;;;5.80;;
21022;SDS011;10669;51.076;3.714;2022-12-07T07:52:43;14.30;;;5.63;;
21022;SDS011;10669;51.076;3.714;2022-12-07T07:55:11;9.10;;;4.93;;
21022;SDS011;10669;51.076;3.714;2022-12-07T07:57:37;11.57;;;5.40;;
21022;SDS011;10669;51.076;3.714;2022-12-07T08:00:04;9.47;;;5.40;;
21022;SDS011;10669;51.076;3.714;2022-12-07T08:02:32;8.40;;;5.17;;
21022;SDS011;10669;51.076;3.714;2022-12-07T08:04:58;11.60;;;5.33;;
21022;SDS011;10669;51.076;3.714;2022-12-07T08:07:23;7.67;;;5.00;;
21022;SDS011;10669;51.076;3.714;2022-12-07T08:09:50;10.00;;;5.07;;
21022;SDS011;10669;51.076;3.714;2022-12-07T08:12:16;13.33;;;5.03;;
21022;SDS011;10669;51.076;3.714;2022-12-07T08:14:41;10.43;;;5.23;;
21022;SDS011;10669;51.076;3.714;2022-12-07T08:17:08;11.67;;;5.07;;
21022;SDS011;10669;51.076;3.714;2022-12-07T08:19:33;17.77;;;7.03;;
21022;SDS011;10669;51.076;3.714;2022-12-07T08:21:59;13.73;;;6.03;;
21022;SDS011;10669;51.076;3.714;2022-12-07T08:24:25;14.17;;;6.37;;
21022;SDS011;10669;51.076;3.714;2022-12-07T08:26:51;11.50;;;6.10;;
21022;SDS011;10669;51.076;3.714;2022-12-07T08:29:17;14.60;;;5.10;;
21022;SDS011;10669;51.076;3.714;2022-12-07T08:31:43;17.47;;;5.60;;
21022;SDS011;10669;51.076;3.714;2022-12-07T08:34:10;14.47;;;5.77;;
21022;SDS011;10669;51.076;3.714;2022-12-07T08:36:36;12.70;;;5.30;;
21022;SDS011;10669;51.076;3.714;2022-12-07T08:39:02;16.57;;;5.70;;
21022;SDS011;10669;51.076;3.714;2022-12-07T08:41:28;12.30;;;5.73;;
21022;SDS011;10669;51.076;3.714;2022-12-07T08:43:54;12.23;;;5.07;;
21022;SDS011;10669;51.076;3.714;2022-12-07T08:46:21;16.00;;;6.53;;
21022;SDS011;10669;51.076;3.714;2022-12-07T08:51:23;18.80;;;7.73;;
21022;SDS011;10669;51.076;3.714;2022-12-07T08:53:49;16.70;;;7.60;;
21022;SDS011;10669;51.076;3.714;2022-12-07T08:56:16;65.30;;;42.93;;
21022;SDS011;10669;51.076;3.714;2022-12-07T08:58:41;51.10;;;28.87;;
21022;SDS011;10669;51.076;3.714;2022-12-07T09:01:08;25.47;;;14.87;;
21022;SDS011;10669;51.076;3.714;2022-12-07T09:03:34;18.63;;;10.43;;
21022;SDS011;10669;51.076;3.714;2022-12-07T09:06:00;25.40;;;13.67;;
21022;SDS011;10669;51.076;3.714;2022-12-07T09:08:26;25.70;;;11.90;;
21022;SDS011;10669;51.076;3.714;2022-12-07T09:10:59;22.73;;;12.00;;
21022;SDS011;10669;51.076;3.714;2022-12-07T09:13:25;22.83;;;15.53;;
21022;SDS011;10669;51.076;3.714;2022-12-07T09:15:51;27.83;;;15.77;;
21022;SDS011;10669;51.076;3.714;2022-12-07T09:18:17;24.67;;;15.43;;
21022;SDS011;10669;51.076;3.714;2022-12-07T09:20:44;23.07;;;12.47;;
21022;SDS011;10669;51.076;3.714;2022-12-07T09:23:11;14.83;;;7.47;;
21022;SDS011;10669;51.076;3.714;2022-12-07T09:25:39;15.47;;;8.00;;
21022;SDS011;10669;51.076;3.714;2022-12-07T09:28:04;13.83;;;6.63;;
21022;SDS011;10669;51.076;3.714;2022-12-07T09:30:31;12.43;;;6.97;;
21022;SDS011;10669;51.076;3.714;2022-12-07T09:35:28;8.97;;;5.40;;
21022;SDS011;10669;51.076;3.714;2022-12-07T09:40:25;11.43;;;4.63;;
21022;SDS011;10669;51.076;3.714;2022-12-07T09:42:53;7.43;;;4.23;;
21022;SDS011;10669;51.076;3.714;2022-12-07T09:45:24;9.40;;;4.40;;
21022;SDS011;10669;51.076;3.714;2022-12-07T09:47:56;18.40;;;4.77;;
21022;SDS011;10669;51.076;3.714;2022-12-07T09:50:23;11.87;;;5.27;;
21022;SDS011;10669;51.076;3.714;2022-12-07T09:52:53;11.73;;;5.00;;
21022;SDS011;10669;51.076;3.714;2022-12-07T09:55:26;20.87;;;5.57;;
21022;SDS011;10669;51.076;3.714;2022-12-07T09:57:55;14.87;;;5.00;;
21022;SDS011;10669;51.076;3.714;2022-12-07T10:00:22;17.73;;;5.33;;
21022;SDS011;10669;51.076;3.714;2022-12-07T10:02:59;13.93;;;5.07;;
21022;SDS011;10669;51.076;3.714;2022-12-07T10:05:35;13.70;;;6.90;;
21022;SDS011;10669;51.076;3.714;2022-12-07T10:08:11;13.67;;;5.23;;
21022;SDS011;10669;51.076;3.714;2022-12-07T10:10:39;16.37;;;5.73;;
21022;SDS011;10669;51.076;3.714;2022-12-07T10:13:10;12.67;;;6.10;;
21022;SDS011;10669;51.076;3.714;2022-12-07T10:15:40;11.97;;;5.57;;
21022;SDS011;10669;51.076;3.714;2022-12-07T10:26:41;18.73;;;7.73;;
21022;SDS011;10669;51.076;3.714;2022-12-07T10:29:31;17.47;;;6.37;;
21022;SDS011;10669;51.076;3.714;2022-12-07T10:32:04;8.13;;;4.90;;
21022;SDS011;10669;51.076;3.714;2022-12-07T10:34:51;7.20;;;5.67;;
21022;SDS011;10669;51.076;3.714;2022-12-07T10:37:42;12.17;;;5.03;;
21022;SDS011;10669;51.076;3.714;2022-12-07T10:40:32;12.43;;;5.03;;
21022;SDS011;10669;51.076;3.714;2022-12-07T10:43:18;10.60;;;5.13;;
21022;SDS011;10669;51.076;3.714;2022-12-07T10:51:12;16.77;;;5.87;;
21022;SDS011;10669;51.076;3.714;2022-12-07T10:54:04;13.87;;;5.00;;
21022;SDS011;10669;51.076;3.714;2022-12-07T10:56:57;15.33;;;5.70;;
21022;SDS011;10669;51.076;3.714;2022-12-07T11:02:26;9.57;;;4.20;;
21022;SDS011;10669;51.076;3.714;2022-12-07T11:16:41;7.97;;;4.40;;
21022;SDS011;10669;51.076;3.714;2022-12-07T11:25:20;9.60;;;4.33;;
21022;SDS011;10669;51.076;3.714;2022-12-07T11:28:02;11.27;;;4.80;;
21022;SDS011;10669;51.076;3.714;2022-12-07T11:30:54;9.10;;;4.30;;
21022;SDS011;10669;51.076;3.714;2022-12-07T11:33:45;7.97;;;4.10;;
21022;SDS011;10669;51.076;3.714;2022-12-07T11:36:25;8.93;;;4.00;;
21022;SDS011;10669;51.076;3.714;2022-12-07T11:41:48;6.43;;;3.10;;
21022;SDS011;10669;51.076;3.714;2022-12-07T11:44:34;9.27;;;3.50;;
21022;SDS011;10669;51.076;3.714;2022-12-07T11:47:21;10.77;;;4.00;;
21022;SDS011;10669;51.076;3.714;2022-12-07T11:50:14;9.57;;;3.37;;
21022;SDS011;10669;51.076;3.714;2022-12-07T11:52:49;8.97;;;3.83;;
21022;SDS011;10669;51.076;3.714;2022-12-07T11:55:40;4.83;;;3.30;;
21022;SDS011;10669;51.076;3.714;2022-12-07T12:04:16;7.70;;;3.23;;
21022;SDS011;10669;51.076;3.714;2022-12-07T12:07:17;12.30;;;3.27;;
21022;SDS011;10669;51.076;3.714;2022-12-07T12:09:54;8.63;;;2.43;;
21022;SDS011;10669;51.076;3.714;2022-12-07T12:12:36;10.80;;;2.70;;
21022;SDS011;10669;51.076;3.714;2022-12-07T12:17:59;5.60;;;2.30;;
21022;SDS011;10669;51.076;3.714;2022-12-07T12:20:52;6.17;;;2.60;;
21022;SDS011;10669;51.076;3.714;2022-12-07T12:26:15;6.37;;;2.10;;
21022;SDS011;10669;51.076;3.714;2022-12-07T12:28:55;7.17;;;1.93;;
21022;SDS011;10669;51.076;3.714;2022-12-07T12:31:31;4.90;;;2.50;;
21022;SDS011;10669;51.076;3.714;2022-12-07T12:36:58;8.17;;;3.43;;
21022;SDS011;10669;51.076;3.714;2022-12-07T12:41:56;8.53;;;3.50;;
21022;SDS011;10669;51.076;3.714;2022-12-07T12:50:16;8.90;;;3.83;;
21022;SDS011;10669;51.076;3.714;2022-12-07T12:52:52;6.10;;;3.33;;
21022;SDS011;10669;51.076;3.714;2022-12-07T12:55:19;8.30;;;3.73;;
21022;SDS011;10669;51.076;3.714;2022-12-07T12:58:21;8.47;;;2.97;;
21022;SDS011;10669;51.076;3.714;2022-12-07T13:00:42;6.17;;;2.80;;
21022;SDS011;10669;51.076;3.714;2022-12-07T13:03:20;10.20;;;3.30;;
21022;SDS011;10669;51.076;3.714;2022-12-07T13:06:38;7.07;;;3.20;;
21022;SDS011;10669;51.076;3.714;2022-12-07T13:08:44;7.00;;;2.97;;
21022;SDS011;10669;51.076;3.714;2022-12-07T13:11:25;9.93;;;3.60;;
21022;SDS011;10669;51.076;3.714;2022-12-07T13:17:00;5.53;;;2.80;;
21022;SDS011;10669;51.076;3.714;2022-12-07T13:19:52;9.73;;;3.00;;
21022;SDS011;10669;51.076;3.714;2022-12-07T13:28:07;6.23;;;3.47;;
21022;SDS011;10669;51.076;3.714;2022-12-07T13:30:42;9.63;;;4.13;;
21022;SDS011;10669;51.076;3.714;2022-12-07T13:33:30;6.93;;;2.63;;
21022;SDS011;10669;51.076;3.714;2022-12-07T13:36:02;9.20;;;3.00;;
21022;SDS011;10669;51.076;3.714;2022-12-07T13:38:33;11.87;;;3.40;;
21022;SDS011;10669;51.076;3.714;2022-12-07T13:41:03;10.00;;;3.43;;
21022;SDS011;10669;51.076;3.714;2022-12-07T13:46:15;7.07;;;3.57;;
21022;SDS011;10669;51.076;3.714;2022-12-07T13:48:47;5.23;;;3.47;;
21022;SDS011;10669;51.076;3.714;2022-12-07T13:51:22;8.00;;;3.43;;
21022;SDS011;10669;51.076;3.714;2022-12-07T13:53:54;9.47;;;3.00;;
21022;SDS011;10669;51.076;3.714;2022-12-07T13:56:26;7.27;;;3.33;;
21022;SDS011;10669;51.076;3.714;2022-12-07T13:58:56;10.17;;;2.57;;
21022;SDS011;10669;51.076;3.714;2022-12-07T14:01:24;6.47;;;2.10;;
21022;SDS011;10669;51.076;3.714;2022-12-07T14:03:51;6.73;;;2.07;;
21022;SDS011;10669;51.076;3.714;2022-12-07T14:06:24;3.20;;;1.70;;
21022;SDS011;10669;51.076;3.714;2022-12-07T14:09:25;6.63;;;1.50;;
21022;SDS011;10669;51.076;3.714;2022-12-07T14:11:47;5.97;;;1.40;;
21022;SDS011;10669;51.076;3.714;2022-12-07T14:14:23;5.87;;;1.40;;
21022;SDS011;10669;51.076;3.714;2022-12-07T14:16:56;5.43;;;1.70;;
21022;SDS011;10669;51.076;3.714;2022-12-07T14:19:40;5.20;;;1.30;;
21022;SDS011;10669;51.076;3.714;2022-12-07T14:22:26;2.67;;;1.40;;
21022;SDS011;10669;51.076;3.714;2022-12-07T14:24:58;5.83;;;1.40;;
21022;SDS011;10669;51.076;3.714;2022-12-07T14:27:30;4.97;;;1.27;;
21022;SDS011;10669;51.076;3.714;2022-12-07T14:30:02;5.23;;;1.10;;
21022;SDS011;10669;51.076;3.714;2022-12-07T14:32:31;5.73;;;1.40;;
21022;SDS011;10669;51.076;3.714;2022-12-07T14:37:36;1.60;;;0.97;;
21022;SDS011;10669;51.076;3.714;2022-12-07T14:40:03;4.13;;;1.33;;
21022;SDS011;10669;51.076;3.714;2022-12-07T14:42:30;3.67;;;1.40;;
21022;SDS011;10669;51.076;3.714;2022-12-07T14:44:59;1.70;;;1.10;;
21022;SDS011;10669;51.076;3.714;2022-12-07T14:47:26;5.70;;;1.10;;
21022;SDS011;10669;51.076;3.714;2022-12-07T14:49:52;2.60;;;1.27;;
21022;SDS011;10669;51.076;3.714;2022-12-07T14:52:27;4.70;;;1.63;;
21022;SDS011;10669;51.076;3.714;2022-12-07T14:54:55;4.23;;;2.00;;
21022;SDS011;10669;51.076;3.714;2022-12-07T14:57:21;5.67;;;2.03;;
21022;SDS011;10669;51.076;3.714;2022-12-07T14:59:47;4.07;;;1.80;;
21022;SDS011;10669;51.076;3.714;2022-12-07T15:02:14;6.87;;;1.90;;
21022;SDS011;10669;51.076;3.714;2022-12-07T15:04:40;6.57;;;2.40;;
21022;SDS011;10669;51.076;3.714;2022-12-07T15:07:09;5.17;;;2.53;;
21022;SDS011;10669;51.076;3.714;2022-12-07T15:09:40;5.80;;;2.00;;
21022;SDS011;10669;51.076;3.714;2022-12-07T15:12:06;3.03;;;2.07;;
21022;SDS011;10669;51.076;3.714;2022-12-07T15:14:32;5.90;;;1.97;;
21022;SDS011;10669;51.076;3.714;2022-12-07T15:16:59;6.40;;;2.20;;
21022;SDS011;10669;51.076;3.714;2022-12-07T15:19:24;2.27;;;1.67;;
21022;SDS011;10669;51.076;3.714;2022-12-07T15:21:53;11.63;;;3.10;;
21022;SDS011;10669;51.076;3.714;2022-12-07T15:24:19;14.73;;;2.90;;
21022;SDS011;10669;51.076;3.714;2022-12-07T15:26:47;5.73;;;2.50;;
21022;SDS011;10669;51.076;3.714;2022-12-07T15:29:13;10.23;;;2.90;;
21022;SDS011;10669;51.076;3.714;2022-12-07T15:31:40;5.13;;;2.67;;
21022;SDS011;10669;51.076;3.714;2022-12-07T15:34:05;9.57;;;2.40;;
21022;SDS011;10669;51.076;3.714;2022-12-07T15:36:32;5.20;;;2.17;;
21022;SDS011;10669;51.076;3.714;2022-12-07T15:38:58;5.70;;;2.43;;
21022;SDS011;10669;51.076;3.714;2022-12-07T15:41:25;4.57;;;2.10;;
21022;SDS011;10669;51.076;3.714;2022-12-07T15:43:52;7.10;;;2.40;;
21022;SDS011;10669;51.076;3.714;2022-12-07T15:46:37;5.73;;;2.70;;
21022;SDS011;10669;51.076;3.714;2022-12-07T15:49:38;3.77;;;2.50;;
21022;SDS011;10669;51.076;3.714;2022-12-07T15:51:58;14.83;;;5.30;;
21022;SDS011;10669;51.076;3.714;2022-12-07T15:54:27;13.47;;;5.47;;
21022;SDS011;10669;51.076;3.714;2022-12-07T15:56:54;12.80;;;5.70;;
21022;SDS011;10669;51.076;3.714;2022-12-07T15:59:22;14.47;;;4.57;;
21022;SDS011;10669;51.076;3.714;2022-12-07T16:01:49;10.00;;;4.43;;
21022;SDS011;10669;51.076;3.714;2022-12-07T16:04:15;13.53;;;6.17;;
21022;SDS011;10669;51.076;3.714;2022-12-07T16:06:42;17.40;;;8.87;;
21022;SDS011;10669;51.076;3.714;2022-12-07T16:09:07;18.67;;;8.80;;
21022;SDS011;10669;51.076;3.714;2022-12-07T16:11:33;22.77;;;8.63;;
21022;SDS011;10669;51.076;3.714;2022-12-07T16:13:59;10.30;;;6.97;;
21022;SDS011;10669;51.076;3.714;2022-12-07T16:16:25;14.27;;;7.10;;
21022;SDS011;10669;51.076;3.714;2022-12-07T16:18:54;12.73;;;6.47;;
21022;SDS011;10669;51.076;3.714;2022-12-07T16:21:20;11.20;;;5.57;;
21022;SDS011;10669;51.076;3.714;2022-12-07T16:23:49;10.23;;;5.50;;
21022;SDS011;10669;51.076;3.714;2022-12-07T16:26:16;9.40;;;4.60;;
21022;SDS011;10669;51.076;3.714;2022-12-07T16:28:43;10.53;;;4.73;;
21022;SDS011;10669;51.076;3.714;2022-12-07T16:31:11;7.43;;;4.70;;
21022;SDS011;10669;51.076;3.714;2022-12-07T16:33:39;11.60;;;4.73;;
21022;SDS011;10669;51.076;3.714;2022-12-07T16:36:06;14.37;;;4.90;;
21022;SDS011;10669;51.076;3.714;2022-12-07T16:38:33;7.00;;;4.57;;
21022;SDS011;10669;51.076;3.714;2022-12-07T16:41:00;10.67;;;4.77;;
21022;SDS011;10669;51.076;3.714;2022-12-07T16:43:25;10.17;;;6.17;;
21022;SDS011;10669;51.076;3.714;2022-12-07T16:45:51;14.40;;;8.13;;
21022;SDS011;10669;51.076;3.714;2022-12-07T16:48:18;13.80;;;6.07;;
21022;SDS011;10669;51.076;3.714;2022-12-07T16:50:46;13.13;;;7.63;;
21022;SDS011;10669;51.076;3.714;2022-12-07T16:53:13;9.50;;;5.23;;